Harrisonburg, Virginia
Current Conditions -  °F | °C
As of 5:15 AM on Tuesday 27 Jan 2015 (Local Time) from KVBW Reporting Station
Overcast Overcast  
Wind Chill: -3°   Ceiling: 6000
Heat Index: -3°   Visibility: 10mi
Dew Point: -5°   Wind: 3mph
Humidity: 86%   Direction: 20°NNE
Pressure: 29.73"   Gusts: NA
Location:  38.45°N, 78.87°W
Report Text: KVBW 271015Z AUTO 02003KT 10SM SCT028 BKN060 OVC075 M02/M04 A2973 RMK AO2 T10251045
Loading
Personal Weather Stations






























Interactive Weather Map New forecast layout! Learn more

10-Day Weather Forecast

Advertisements
Track Severe Weather on mobile